createdAt,value
2017-06-29T00:00:54.912Z,19.36
2017-06-29T00:01:54.906Z,19.37
2017-06-29T00:02:54.905Z,19.33
2017-06-29T00:03:54.901Z,19.36
2017-06-29T00:04:54.902Z,19.36
2017-06-29T00:05:54.895Z,19.37
2017-06-29T00:06:54.592Z,19.39
2017-06-29T00:07:54.889Z,19.36
2017-06-29T00:08:54.891Z,19.28
2017-06-29T00:09:54.895Z,19.23
2017-06-29T00:10:54.885Z,19.32
2017-06-29T00:11:54.883Z,19.29
2017-06-29T00:12:54.881Z,19.26
2017-06-29T00:13:54.878Z,19.31
2017-06-29T00:14:54.875Z,19.23
2017-06-29T00:15:54.873Z,19.23
2017-06-29T00:16:54.868Z,19.28
2017-06-29T00:17:54.885Z,19.26
2017-06-29T00:18:54.865Z,19.25
2017-06-29T00:19:54.862Z,19.28
2017-06-29T00:20:54.860Z,19.19
2017-06-29T00:21:54.862Z,19.18
2017-06-29T00:22:54.855Z,19.19
2017-06-29T00:23:54.852Z,19.19
2017-06-29T00:24:54.850Z,19.16
2017-06-29T00:25:54.844Z,19.18
2017-06-29T00:26:54.843Z,19.16
2017-06-29T00:27:54.848Z,19.26
2017-06-29T00:28:54.842Z,19.23
2017-06-29T00:29:54.845Z,19.23
2017-06-29T00:30:54.834Z,19.26
2017-06-29T00:31:54.528Z,19.16
2017-06-29T00:32:54.831Z,19.29
2017-06-29T00:33:54.826Z,19.23
2017-06-29T00:34:54.836Z,19.26
2017-06-29T00:35:54.828Z,19.25
2017-06-29T00:36:54.817Z,19.26
2017-06-29T00:37:54.820Z,19.25
2017-06-29T00:38:54.816Z,19.25
2017-06-29T00:39:54.206Z,19.26
2017-06-29T00:40:54.808Z,19.26
2017-06-29T00:41:54.807Z,19.26
2017-06-29T00:42:54.806Z,19.26
2017-06-29T00:43:54.803Z,19.31
2017-06-29T00:44:55.109Z,19.28
2017-06-29T00:45:54.795Z,19.21
2017-06-29T00:46:54.795Z,19.18
2017-06-29T00:47:54.798Z,19.14
2017-06-29T00:48:54.793Z,19.18
2017-06-29T00:49:54.791Z,19.11
2017-06-29T00:50:54.484Z,19.14
2017-06-29T00:51:54.781Z,19.11
2017-06-29T00:52:54.782Z,19.1
2017-06-29T00:53:54.481Z,19.08
2017-06-29T00:54:54.777Z,19.22
2017-06-29T00:55:54.774Z,19.11
2017-06-29T00:56:54.771Z,19.06
2017-06-29T00:57:54.772Z,19.07
2017-06-29T00:58:54.765Z,19.08
2017-06-29T00:59:54.767Z,19.08
2017-06-29T01:00:54.767Z,19.02
2017-06-29T01:01:54.759Z,18.98
2017-06-29T01:02:54.761Z,19
2017-06-29T01:03:54.756Z,19.02
2017-06-29T01:04:54.749Z,19
2017-06-29T01:05:54.746Z,18.95
2017-06-29T01:06:54.445Z,19
2017-06-29T01:07:54.748Z,19.07
2017-06-29T01:08:54.743Z,19
2017-06-29T01:09:54.741Z,19.08
2017-06-29T01:10:54.737Z,19.02
2017-06-29T01:11:54.735Z,19.11
2017-06-29T01:12:54.735Z,19.08
2017-06-29T01:13:54.732Z,19.18
2017-06-29T01:14:54.736Z,19.22
2017-06-29T01:15:54.724Z,19.16
2017-06-29T01:16:54.721Z,19.16
2017-06-29T01:17:54.726Z,19.14
2017-06-29T01:18:54.726Z,19.16
2017-06-29T01:19:54.717Z,19.19
2017-06-29T01:20:54.714Z,19.13
2017-06-29T01:21:54.748Z,19.16
2017-06-29T01:22:54.705Z,19.13
2017-06-29T01:23:54.715Z,19.21
2017-06-29T01:24:54.703Z,19.11
2017-06-29T01:25:54.702Z,19.13
2017-06-29T01:26:54.696Z,19.21
2017-06-29T01:27:54.693Z,19.16
2017-06-29T01:28:54.693Z,19
2017-06-29T01:29:54.691Z,19
2017-06-29T01:30:54.684Z,19.04
2017-06-29T01:31:54.682Z,19.06
2017-06-29T01:32:54.680Z,19.04
2017-06-29T01:33:54.677Z,19.07
2017-06-29T01:34:54.675Z,18.9
2017-06-29T01:35:54.673Z,18.91
2017-06-29T01:36:54.673Z,18.94
2017-06-29T01:37:54.679Z,18.98
2017-06-29T01:38:54.665Z,18.95
2017-06-29T01:39:54.666Z,18.91
2017-06-29T01:40:54.056Z,18.87
2017-06-29T01:41:54.658Z,18.88
2017-06-29T01:42:54.674Z,18.82
2017-06-29T01:43:54.655Z,18.8
2017-06-29T01:44:54.649Z,18.82
2017-06-29T01:45:54.649Z,18.84
2017-06-29T01:46:54.649Z,18.81
2017-06-29T01:47:54.649Z,18.84
2017-06-29T01:48:54.642Z,18.73
2017-06-29T01:49:54.637Z,18.72
2017-06-29T01:50:54.638Z,18.67
2017-06-29T01:51:54.634Z,18.63
2017-06-29T01:52:54.630Z,18.62
2017-06-29T01:53:54.331Z,18.66
2017-06-29T01:54:54.022Z,18.6
2017-06-29T01:55:54.624Z,18.57
2017-06-29T01:56:54.623Z,18.57
2017-06-29T01:57:54.623Z,18.54
2017-06-29T01:58:54.618Z,18.57
2017-06-29T01:59:54.614Z,18.47
2017-06-29T02:00:54.621Z,18.57
2017-06-29T02:01:54.306Z,18.57
2017-06-29T02:02:54.609Z,18.37
2017-06-29T02:03:54.605Z,18.45
2017-06-29T02:04:54.600Z,18.33
2017-06-29T02:05:54.598Z,18.35
2017-06-29T02:06:54.593Z,18.44
2017-06-29T02:07:54.589Z,18.29
2017-06-29T02:08:54.592Z,18.3
2017-06-29T02:09:54.589Z,18.27
2017-06-29T02:10:54.586Z,18.29
2017-06-29T02:11:54.576Z,18.21
2017-06-29T02:12:54.575Z,18.18
2017-06-29T02:13:54.576Z,18.25
2017-06-29T02:14:54.567Z,18.2
2017-06-29T02:15:54.566Z,18.11
2017-06-29T02:16:54.567Z,18.2
2017-06-29T02:17:54.256Z,18.15
2017-06-29T02:18:54.565Z,18.14
2017-06-29T02:19:54.555Z,17.99
2017-06-29T02:20:54.556Z,18.07
2017-06-29T02:21:54.551Z,18
2017-06-29T02:22:54.550Z,17.9
2017-06-29T02:23:54.550Z,17.89
2017-06-29T02:24:54.540Z,17.89
2017-06-29T02:25:54.537Z,17.93
2017-06-29T02:26:54.535Z,17.9
2017-06-29T02:27:54.533Z,17.93
2017-06-29T02:28:54.225Z,17.93
2017-06-29T02:29:54.526Z,17.9
2017-06-29T02:30:54.525Z,17.92
2017-06-29T02:31:54.523Z,17.93
2017-06-29T02:32:54.520Z,17.78
2017-06-29T02:33:54.511Z,17.78
2017-06-29T02:34:54.513Z,17.86
2017-06-29T02:35:54.507Z,17.86
2017-06-29T02:36:54.506Z,17.87
2017-06-29T02:37:54.499Z,17.79
2017-06-29T02:38:54.498Z,17.79
2017-06-29T02:39:54.498Z,17.84
2017-06-29T02:40:54.492Z,17.77
2017-06-29T02:41:54.489Z,17.74
2017-06-29T02:42:54.488Z,17.77
2017-06-29T02:43:54.481Z,17.78
2017-06-29T02:44:54.478Z,17.74
2017-06-29T02:45:54.472Z,17.79
2017-06-29T02:46:54.474Z,17.77
2017-06-29T02:47:54.474Z,17.82
2017-06-29T02:48:54.468Z,17.84
2017-06-29T02:49:54.462Z,17.74
2017-06-29T02:50:54.459Z,17.87
2017-06-29T02:51:54.460Z,17.9
2017-06-29T02:52:54.455Z,17.81
2017-06-29T02:53:54.454Z,17.86
2017-06-29T02:54:54.447Z,17.95
2017-06-29T02:55:54.442Z,17.89
2017-06-29T02:56:54.441Z,17.95
2017-06-29T02:57:54.435Z,18.07
2017-06-29T02:58:54.433Z,17.99
2017-06-29T02:59:54.430Z,18.17
2017-06-29T03:00:54.427Z,18.12
2017-06-29T03:01:54.426Z,18.11
2017-06-29T03:02:54.432Z,18.17
2017-06-29T03:03:54.419Z,18.18
2017-06-29T03:04:54.416Z,18.14
2017-06-29T03:05:54.409Z,18.23
2017-06-29T03:06:54.408Z,18.3
2017-06-29T03:07:54.408Z,18.25
2017-06-29T03:08:54.404Z,18.26
2017-06-29T03:09:54.403Z,18.29
2017-06-29T03:10:54.395Z,18.32
2017-06-29T03:11:54.391Z,18.36
2017-06-29T03:12:54.393Z,18.45
2017-06-29T03:13:54.389Z,18.39
2017-06-29T03:14:54.382Z,18.39
2017-06-29T03:15:54.378Z,18.51
2017-06-29T03:16:54.378Z,18.52
2017-06-29T03:17:54.376Z,18.57
2017-06-29T03:18:54.377Z,18.52
2017-06-29T03:19:54.371Z,18.66
2017-06-29T03:20:54.368Z,18.67
2017-06-29T03:21:54.363Z,18.73
2017-06-29T03:22:54.357Z,18.75
2017-06-29T03:23:54.358Z,18.8
2017-06-29T03:24:54.354Z,18.8
2017-06-29T03:25:54.350Z,18.81
2017-06-29T03:26:54.351Z,18.85
2017-06-29T03:27:54.349Z,18.9
2017-06-29T03:28:54.074Z,18.94
2017-06-29T03:29:54.345Z,18.91
2017-06-29T03:30:54.338Z,18.92
2017-06-29T03:31:54.338Z,18.98
2017-06-29T03:32:54.337Z,19.06
2017-06-29T03:33:54.329Z,19
2017-06-29T03:34:54.331Z,18.99
2017-06-29T03:35:54.323Z,19.02
2017-06-29T03:36:54.323Z,18.95
2017-06-29T03:37:54.322Z,18.95
2017-06-29T03:38:54.321Z,19.06
2017-06-29T03:39:54.313Z,18.91
2017-06-29T03:40:54.309Z,18.95
2017-06-29T03:41:54.311Z,19.02
2017-06-29T03:42:54.307Z,18.99
2017-06-29T03:43:54.305Z,19.07
2017-06-29T03:44:54.302Z,19.1
2017-06-29T03:45:53.995Z,19.08
2017-06-29T03:46:54.297Z,19.22
2017-06-29T03:47:54.294Z,19.14
2017-06-29T03:48:54.297Z,19.18
2017-06-29T03:49:54.287Z,19.14
2017-06-29T03:50:54.288Z,19.16
2017-06-29T03:51:54.283Z,19.22
2017-06-29T03:52:54.283Z,19.28
2017-06-29T03:53:54.277Z,19.26
2017-06-29T03:54:54.274Z,19.18
2017-06-29T03:55:54.276Z,19.28
2017-06-29T03:56:54.270Z,19.26
2017-06-29T03:57:54.267Z,19.36
2017-06-29T03:58:54.270Z,19.39
2017-06-29T03:59:54.268Z,19.43
2017-06-29T04:00:54.264Z,19.47
2017-06-29T04:01:54.258Z,19.56
2017-06-29T04:02:54.263Z,19.62
2017-06-29T04:03:54.257Z,19.66
2017-06-29T04:04:54.253Z,19.63
2017-06-29T04:05:54.249Z,19.76
2017-06-29T04:06:54.248Z,19.63
2017-06-29T04:07:54.248Z,19.69
2017-06-29T04:08:54.247Z,19.71
2017-06-29T04:09:54.242Z,19.66
2017-06-29T04:10:54.240Z,19.77
2017-06-29T04:11:54.234Z,19.62
2017-06-29T04:12:54.236Z,19.69
2017-06-29T04:13:54.233Z,19.76
2017-06-29T04:14:54.236Z,19.63
2017-06-29T04:15:53.926Z,19.59
2017-06-29T04:16:54.222Z,19.62
2017-06-29T04:17:54.226Z,19.65
2017-06-29T04:18:54.220Z,19.59
2017-06-29T04:19:54.217Z,19.61
2017-06-29T04:20:54.216Z,19.61
2017-06-29T04:21:54.215Z,19.63
2017-06-29T04:22:54.212Z,19.65
2017-06-29T04:23:54.210Z,19.55
2017-06-29T04:24:54.211Z,19.5
2017-06-29T04:25:54.208Z,19.46
2017-06-29T04:26:54.208Z,19.4
2017-06-29T04:27:54.205Z,19.46
2017-06-29T04:28:54.203Z,19.37
2017-06-29T04:29:54.233Z,19.4
2017-06-29T04:30:54.197Z,19.43
2017-06-29T04:31:54.197Z,19.39
2017-06-29T04:32:54.198Z,19.44
2017-06-29T04:33:54.190Z,19.39
2017-06-29T04:34:54.190Z,19.43
2017-06-29T04:35:54.190Z,19.43
2017-06-29T04:36:54.182Z,19.54
2017-06-29T04:37:54.185Z,19.61
2017-06-29T04:38:54.177Z,19.62
2017-06-29T04:39:54.177Z,19.68
2017-06-29T04:40:54.424Z,19.74
2017-06-29T04:41:54.171Z,19.83
2017-06-29T04:42:54.171Z,19.91
2017-06-29T04:43:54.171Z,19.95
2017-06-29T04:44:54.161Z,20.05
2017-06-29T04:45:54.162Z,20.05
2017-06-29T04:46:54.164Z,20.06
2017-06-29T04:47:54.159Z,20.02
2017-06-29T04:48:54.157Z,19.99
2017-06-29T04:49:54.151Z,19.98
2017-06-29T04:50:54.154Z,19.94
2017-06-29T04:51:54.153Z,19.88
2017-06-29T04:52:54.150Z,19.86
2017-06-29T04:53:54.146Z,19.91
2017-06-29T04:54:54.145Z,19.91
2017-06-29T04:55:54.141Z,19.88
2017-06-29T04:56:54.141Z,20.06
2017-06-29T04:57:54.142Z,20.06
2017-06-29T04:58:54.139Z,20.11
2017-06-29T04:59:54.138Z,20.08
2017-06-29T05:00:53.831Z,20.11
2017-06-29T05:01:54.131Z,20.2
2017-06-29T05:02:54.133Z,20.06
2017-06-29T05:03:54.134Z,20.08
2017-06-29T05:04:54.125Z,20.06
2017-06-29T05:05:54.124Z,20.06
2017-06-29T05:06:54.123Z,20.05
2017-06-29T05:07:54.132Z,20.08
2017-06-29T05:08:54.124Z,20.18
2017-06-29T05:09:54.120Z,20.23
2017-06-29T05:10:54.121Z,20.21
2017-06-29T05:11:54.123Z,20.31
2017-06-29T05:12:54.116Z,20.36
2017-06-29T05:13:54.114Z,20.41
2017-06-29T05:14:54.149Z,20.51
2017-06-29T05:15:54.109Z,20.5
2017-06-29T05:16:54.111Z,20.59
2017-06-29T05:17:54.110Z,20.64
2017-06-29T05:18:54.106Z,20.74
2017-06-29T05:19:54.106Z,20.79
2017-06-29T05:20:54.106Z,20.76
2017-06-29T05:21:54.102Z,20.73
2017-06-29T05:22:54.102Z,20.66
2017-06-29T05:23:54.099Z,20.72
2017-06-29T05:24:54.096Z,20.74
2017-06-29T05:25:54.105Z,20.72
2017-06-29T05:26:54.098Z,20.79
2017-06-29T05:27:53.790Z,20.85
2017-06-29T05:28:54.099Z,20.88
2017-06-29T05:29:53.790Z,20.91
2017-06-29T05:30:54.094Z,20.88
2017-06-29T05:31:54.094Z,21.01
2017-06-29T05:32:53.785Z,21.1
2017-06-29T05:33:54.092Z,21.1
2017-06-29T05:34:53.481Z,21.1
2017-06-29T05:35:54.087Z,21.25
2017-06-29T05:36:54.092Z,21.31
2017-06-29T05:37:54.087Z,21.38
2017-06-29T05:38:54.086Z,21.49
2017-06-29T05:39:54.099Z,21.62
2017-06-29T05:40:54.084Z,21.67
2017-06-29T05:41:54.084Z,21.88
2017-06-29T05:42:54.085Z,22.03
2017-06-29T05:43:54.081Z,22.06
2017-06-29T05:44:54.080Z,22.2
2017-06-29T05:45:54.080Z,22.1
2017-06-29T05:46:54.077Z,22.2
2017-06-29T05:47:54.081Z,22.2
2017-06-29T05:48:54.080Z,22.28
2017-06-29T05:49:53.778Z,22.35
2017-06-29T05:50:54.084Z,22.49
2017-06-29T05:51:53.778Z,22.51
2017-06-29T05:52:53.784Z,22.54
2017-06-29T05:53:53.776Z,22.62
2017-06-29T05:54:54.077Z,22.72
2017-06-29T05:55:54.081Z,22.77
2017-06-29T05:56:54.078Z,22.8
2017-06-29T05:57:54.080Z,22.72
2017-06-29T05:58:54.081Z,22.86
2017-06-29T05:59:54.079Z,22.88
2017-06-29T06:00:54.079Z,22.83
2017-06-29T06:01:54.083Z,22.82
2017-06-29T06:02:53.824Z,22.76
2017-06-29T06:03:53.777Z,22.68
2017-06-29T06:04:54.085Z,22.6
2017-06-29T06:05:54.081Z,22.52
2017-06-29T06:06:53.781Z,22.51
2017-06-29T06:07:54.085Z,22.47
2017-06-29T06:08:54.085Z,22.42
2017-06-29T06:09:54.084Z,22.27
2017-06-29T06:10:54.084Z,22.24
2017-06-29T06:11:54.084Z,22.15
2017-06-29T06:12:54.088Z,22.1
2017-06-29T06:13:54.085Z,22
2017-06-29T06:14:53.786Z,22.07
2017-06-29T06:15:53.783Z,22.1
2017-06-29T06:16:54.089Z,22.05
2017-06-29T06:17:54.093Z,21.94
2017-06-29T06:18:54.086Z,21.94
2017-06-29T06:19:54.083Z,21.94
2017-06-29T06:20:54.087Z,21.98
2017-06-29T06:21:53.786Z,22.03
2017-06-29T06:22:54.087Z,21.99
2017-06-29T06:23:54.093Z,22.09
2017-06-29T06:24:54.084Z,22.21
2017-06-29T06:25:54.090Z,22.3
2017-06-29T06:26:53.782Z,22.39
2017-06-29T06:27:54.084Z,22.49
2017-06-29T06:28:53.784Z,22.49
2017-06-29T06:29:54.118Z,22.64
2017-06-29T06:30:54.088Z,22.79
2017-06-29T06:31:54.091Z,22.88
2017-06-29T06:32:54.091Z,22.92
2017-06-29T06:33:54.094Z,23.04
2017-06-29T06:34:54.087Z,23.16
2017-06-29T06:35:54.088Z,23.31
2017-06-29T06:36:54.094Z,23.54
2017-06-29T06:37:54.096Z,23.72
2017-06-29T06:38:54.122Z,23.97
2017-06-29T06:39:54.093Z,24.05
2017-06-29T06:40:54.103Z,24.15
2017-06-29T06:41:54.097Z,24.18
2017-06-29T06:42:54.100Z,24.27
2017-06-29T06:43:54.102Z,24.18
2017-06-29T06:44:54.101Z,24.22
2017-06-29T06:45:54.108Z,24.21
2017-06-29T06:46:53.802Z,24.2
2017-06-29T06:47:54.111Z,24.2
2017-06-29T06:48:54.126Z,24.13
2017-06-29T06:49:54.114Z,24.13
2017-06-29T06:50:54.117Z,24.08
2017-06-29T06:51:54.119Z,23.97
2017-06-29T06:52:54.126Z,23.84
2017-06-29T06:53:53.824Z,23.72
2017-06-29T06:54:54.125Z,23.5
2017-06-29T06:55:54.128Z,23.51
2017-06-29T06:56:54.129Z,23.38
2017-06-29T06:57:54.129Z,23.25
2017-06-29T06:58:54.132Z,23.1
2017-06-29T06:59:53.834Z,23.04
2017-06-29T07:00:54.138Z,22.94
2017-06-29T07:01:54.138Z,22.92
2017-06-29T07:02:54.145Z,22.88
2017-06-29T07:03:54.139Z,22.86
2017-06-29T07:04:54.141Z,22.92
2017-06-29T07:05:54.144Z,22.82
2017-06-29T07:06:53.838Z,22.83
2017-06-29T07:07:54.144Z,22.94
2017-06-29T07:08:54.143Z,23
2017-06-29T07:09:54.147Z,23.04
2017-06-29T07:10:54.148Z,23.22
2017-06-29T07:11:54.149Z,23.22
2017-06-29T07:12:54.147Z,23.31
2017-06-29T07:13:54.155Z,23.46
2017-06-29T07:14:54.150Z,23.57
2017-06-29T07:15:54.150Z,23.58
2017-06-29T07:16:54.158Z,23.68
2017-06-29T07:17:54.162Z,23.7
2017-06-29T07:18:54.155Z,23.79
2017-06-29T07:19:54.159Z,24.06
2017-06-29T07:20:54.159Z,24.18
2017-06-29T07:21:53.861Z,24.34
2017-06-29T07:22:54.162Z,24.5
2017-06-29T07:23:53.557Z,24.69
2017-06-29T07:24:54.171Z,24.8
2017-06-29T07:25:53.869Z,24.85
2017-06-29T07:26:54.172Z,24.87
2017-06-29T07:27:54.178Z,24.93
2017-06-29T07:28:53.877Z,25.08
2017-06-29T07:29:53.895Z,25.24
2017-06-29T07:30:54.182Z,25.36
2017-06-29T07:31:54.187Z,25.55
2017-06-29T07:32:54.190Z,25.61
2017-06-29T07:33:54.197Z,25.62
2017-06-29T07:34:53.893Z,25.65
2017-06-29T07:35:54.197Z,25.6
2017-06-29T07:36:53.903Z,25.6
2017-06-29T07:37:53.901Z,25.43
2017-06-29T07:38:54.208Z,25.43
2017-06-29T07:39:54.210Z,25.32
2017-06-29T07:40:54.214Z,25.3
2017-06-29T07:41:54.220Z,25.27
2017-06-29T07:42:54.223Z,25.3
2017-06-29T07:43:54.224Z,25.18
2017-06-29T07:44:54.231Z,25.06
2017-06-29T07:45:54.231Z,24.91
2017-06-29T07:46:54.236Z,24.88
2017-06-29T07:47:54.242Z,24.78
2017-06-29T07:48:54.241Z,24.83
2017-06-29T07:49:54.245Z,24.85
2017-06-29T07:50:54.248Z,24.78
2017-06-29T07:51:54.248Z,24.68
2017-06-29T07:52:54.255Z,24.62
2017-06-29T07:53:54.253Z,24.57
2017-06-29T07:54:54.257Z,24.53
2017-06-29T07:55:54.260Z,24.5
2017-06-29T07:56:54.267Z,24.35
2017-06-29T07:57:54.274Z,24.27
2017-06-29T07:58:54.267Z,24.25
2017-06-29T07:59:54.311Z,24.02
2017-06-29T08:00:54.270Z,23.93
2017-06-29T08:01:54.272Z,23.85
2017-06-29T08:02:54.275Z,23.69
2017-06-29T08:03:54.276Z,23.61
2017-06-29T08:04:53.976Z,23.5
2017-06-29T08:05:54.282Z,23.35
2017-06-29T08:06:54.289Z,23.23
2017-06-29T08:07:54.293Z,23.25
2017-06-29T08:08:54.288Z,23.23
2017-06-29T08:09:54.286Z,23.25
2017-06-29T08:10:54.289Z,23.27
2017-06-29T08:11:54.287Z,23.25
2017-06-29T08:12:54.290Z,23.28
2017-06-29T08:13:54.295Z,23.31
2017-06-29T08:14:54.294Z,23.28
2017-06-29T08:15:53.992Z,23.32
2017-06-29T08:16:53.994Z,23.28
2017-06-29T08:17:54.300Z,23.27
2017-06-29T08:18:54.301Z,23.19
2017-06-29T08:19:54.301Z,23.19
2017-06-29T08:20:54.297Z,23.16
2017-06-29T08:21:54.304Z,23.15
2017-06-29T08:22:54.300Z,23.2
2017-06-29T08:23:54.300Z,23.13
2017-06-29T08:24:54.300Z,23.2
2017-06-29T08:25:54.007Z,23.16
2017-06-29T08:26:54.303Z,23.17
2017-06-29T08:27:54.310Z,23.17
2017-06-29T08:28:54.303Z,23.2
2017-06-29T08:29:54.303Z,23.1
2017-06-29T08:30:54.306Z,23.17
2017-06-29T08:31:54.306Z,23.19
2017-06-29T08:32:54.314Z,23.22
2017-06-29T08:33:54.304Z,23.16
2017-06-29T08:34:54.309Z,23.2
2017-06-29T08:35:54.310Z,23.2
2017-06-29T08:36:54.354Z,23.23
2017-06-29T08:37:54.006Z,23.33
2017-06-29T08:38:54.315Z,23.32
2017-06-29T08:39:54.309Z,23.32
2017-06-29T08:40:54.005Z,23.36
2017-06-29T08:41:54.307Z,23.4
2017-06-29T08:42:54.310Z,23.43
2017-06-29T08:43:54.009Z,23.47
2017-06-29T08:44:54.309Z,23.43
2017-06-29T08:45:54.316Z,23.48
2017-06-29T08:46:54.316Z,23.48
2017-06-29T08:47:54.314Z,23.46
2017-06-29T08:48:54.309Z,23.43
2017-06-29T08:49:53.711Z,23.4
2017-06-29T08:50:54.317Z,23.43
2017-06-29T08:51:54.316Z,23.46
2017-06-29T08:52:54.017Z,23.54
2017-06-29T08:53:54.314Z,23.53
2017-06-29T08:54:54.317Z,23.5
2017-06-29T08:55:54.016Z,23.57
2017-06-29T08:56:54.320Z,23.5
2017-06-29T08:57:54.319Z,23.5
2017-06-29T08:58:54.016Z,23.5
2017-06-29T08:59:54.316Z,23.51
2017-06-29T09:00:54.020Z,23.4
2017-06-29T09:01:54.315Z,23.38
2017-06-29T09:02:54.321Z,23.33
2017-06-29T09:03:54.320Z,23.28
2017-06-29T09:04:54.320Z,23.23
2017-06-29T09:05:54.325Z,23.23
2017-06-29T09:06:54.324Z,23.12
2017-06-29T09:07:54.020Z,23.13
2017-06-29T09:08:54.019Z,23.05
2017-06-29T09:09:54.016Z,23.09
2017-06-29T09:10:54.019Z,23.01
2017-06-29T09:11:54.021Z,22.95
2017-06-29T09:12:54.017Z,22.91
2017-06-29T09:13:54.018Z,22.82
2017-06-29T09:14:54.321Z,22.83
2017-06-29T09:15:54.334Z,22.79
2017-06-29T09:16:54.016Z,22.61
2017-06-29T09:17:54.335Z,22.45
2017-06-29T09:18:54.017Z,22.37
2017-06-29T09:19:54.317Z,22.1
2017-06-29T09:20:54.017Z,21.98
2017-06-29T09:21:54.325Z,21.79
2017-06-29T09:22:54.015Z,21.71
2017-06-29T09:23:54.320Z,21.64
2017-06-29T09:24:54.319Z,21.52
2017-06-29T09:25:54.016Z,21.44
2017-06-29T09:26:54.013Z,21.34
2017-06-29T09:27:54.009Z,21.31
2017-06-29T09:28:54.011Z,21.19
2017-06-29T09:29:54.012Z,21.19
2017-06-29T09:30:54.011Z,21.1
2017-06-29T09:31:54.013Z,21.1
2017-06-29T09:32:54.010Z,20.91
2017-06-29T09:33:54.009Z,20.8
2017-06-29T09:34:54.012Z,20.74
2017-06-29T09:35:54.308Z,20.8
2017-06-29T09:36:54.309Z,20.73
2017-06-29T09:37:54.313Z,20.74
2017-06-29T09:38:54.309Z,20.73
2017-06-29T09:39:54.311Z,20.64
2017-06-29T09:40:54.305Z,20.73
2017-06-29T09:41:54.300Z,20.61
2017-06-29T09:42:53.995Z,20.66
2017-06-29T09:43:54.300Z,20.67
2017-06-29T09:44:54.295Z,20.61
2017-06-29T09:45:54.544Z,20.62
2017-06-29T09:46:54.290Z,20.59
2017-06-29T09:47:54.291Z,20.66
2017-06-29T09:48:54.289Z,20.55
2017-06-29T09:49:53.984Z,20.55
2017-06-29T09:50:54.286Z,20.52
2017-06-29T09:51:54.289Z,20.5
2017-06-29T09:52:53.979Z,20.5
2017-06-29T09:53:53.978Z,20.38
2017-06-29T09:54:54.275Z,20.39
2017-06-29T09:55:53.971Z,20.36
2017-06-29T09:56:54.271Z,20.38
2017-06-29T09:57:53.971Z,20.33
2017-06-29T09:58:53.966Z,20.36
2017-06-29T09:59:54.267Z,20.31
2017-06-29T10:00:54.271Z,20.31
2017-06-29T10:01:54.268Z,20.29
2017-06-29T10:02:54.263Z,20.33
2017-06-29T10:03:54.267Z,20.28
2017-06-29T10:04:54.255Z,20.2
2017-06-29T10:05:54.257Z,20.05
2017-06-29T10:06:54.249Z,19.98
2017-06-29T10:07:54.247Z,19.92
2017-06-29T10:08:54.249Z,19.78
2017-06-29T10:09:54.245Z,19.78
2017-06-29T10:10:53.941Z,19.76
2017-06-29T10:11:54.241Z,19.78
2017-06-29T10:12:54.237Z,19.73
2017-06-29T10:13:54.237Z,19.8
2017-06-29T10:14:54.233Z,19.76
2017-06-29T10:15:54.235Z,19.83
2017-06-29T10:16:54.234Z,19.91
2017-06-29T10:17:54.225Z,19.95
2017-06-29T10:18:54.227Z,19.99
2017-06-29T10:19:54.227Z,20.03
2017-06-29T10:20:54.221Z,20.1
2017-06-29T10:21:54.221Z,20.05
2017-06-29T10:22:54.216Z,20.08
2017-06-29T10:23:54.213Z,20.13
2017-06-29T10:24:54.213Z,20.05
2017-06-29T10:25:54.212Z,20.18
2017-06-29T10:26:54.208Z,20.23
2017-06-29T10:27:54.207Z,20.16
2017-06-29T10:28:53.901Z,20.14
2017-06-29T10:29:53.896Z,20.26
2017-06-29T10:30:54.199Z,20.23
2017-06-29T10:31:54.197Z,20.21
2017-06-29T10:32:53.888Z,20.18
2017-06-29T10:33:54.189Z,20.21
2017-06-29T10:34:54.187Z,20.23
2017-06-29T10:35:54.186Z,20.28
2017-06-29T10:36:54.184Z,20.26
2017-06-29T10:37:54.180Z,20.28
2017-06-29T10:38:54.180Z,20.2
2017-06-29T10:39:54.177Z,20.2
2017-06-29T10:40:54.331Z,20.18
2017-06-29T10:41:54.175Z,20.18
2017-06-29T10:42:54.183Z,20.21
2017-06-29T10:43:54.187Z,20.05
2017-06-29T10:44:54.178Z,20.08
2017-06-29T10:45:54.195Z,20.03
2017-06-29T10:46:53.877Z,19.95
2017-06-29T10:47:54.195Z,19.98
2017-06-29T10:48:53.857Z,19.98
2017-06-29T10:49:54.179Z,19.87
2017-06-29T10:50:54.201Z,19.91
2017-06-29T10:51:54.195Z,19.87
2017-06-29T10:52:54.204Z,19.81
2017-06-29T10:53:54.172Z,19.88
2017-06-29T10:54:54.176Z,19.78
2017-06-29T10:55:54.186Z,19.74
2017-06-29T10:56:53.879Z,19.74
2017-06-29T10:57:54.190Z,19.66
2017-06-29T10:58:54.171Z,19.66
2017-06-29T10:59:54.165Z,19.5
2017-06-29T11:00:54.154Z,19.54
2017-06-29T11:01:54.182Z,19.48
2017-06-29T11:02:54.165Z,19.55
2017-06-29T11:03:54.174Z,19.51
2017-06-29T11:04:54.171Z,19.61
2017-06-29T11:05:54.167Z,19.59
2017-06-29T11:06:54.154Z,19.76
2017-06-29T11:07:53.845Z,19.74
2017-06-29T11:08:54.160Z,19.63
2017-06-29T11:09:54.146Z,19.62
2017-06-29T11:10:54.139Z,19.66
2017-06-29T11:11:54.148Z,19.74
2017-06-29T11:12:54.157Z,19.71
2017-06-29T11:13:54.186Z,19.65
2017-06-29T11:14:54.126Z,19.73
2017-06-29T11:15:54.134Z,19.61
2017-06-29T11:16:53.812Z,19.62
2017-06-29T11:17:54.134Z,19.61
2017-06-29T11:18:53.812Z,19.66
2017-06-29T11:19:53.817Z,19.63
2017-06-29T11:20:54.128Z,19.84
2017-06-29T11:21:54.126Z,19.76
2017-06-29T11:22:54.128Z,19.87
2017-06-29T11:23:53.814Z,19.92
2017-06-29T11:24:53.820Z,19.84
2017-06-29T11:25:53.795Z,19.92
2017-06-29T11:26:54.104Z,19.94
2017-06-29T11:27:53.805Z,19.94
2017-06-29T11:28:54.115Z,19.92
2017-06-29T11:29:54.108Z,19.92
2017-06-29T11:30:54.093Z,19.94
2017-06-29T11:31:54.089Z,19.95
2017-06-29T11:32:54.114Z,19.91
2017-06-29T11:33:53.774Z,19.94
2017-06-29T11:34:54.098Z,19.95
2017-06-29T11:35:54.087Z,19.99
2017-06-29T11:36:54.094Z,19.95
2017-06-29T11:37:54.069Z,19.92
2017-06-29T11:38:54.097Z,19.91
2017-06-29T11:39:54.084Z,19.91
2017-06-29T11:40:54.090Z,19.96
2017-06-29T11:41:54.064Z,19.92
2017-06-29T11:42:54.069Z,19.98
2017-06-29T11:43:54.061Z,20.02
2017-06-29T11:44:54.077Z,20.02
2017-06-29T11:45:54.075Z,20.17
2017-06-29T11:46:54.071Z,20.14
2017-06-29T11:47:54.061Z,20.17
2017-06-29T11:48:54.058Z,20.14
2017-06-29T11:49:54.098Z,20.26
2017-06-29T11:50:53.742Z,20.2
2017-06-29T11:51:54.066Z,20.35
2017-06-29T11:52:53.734Z,20.36
2017-06-29T11:53:54.063Z,20.36
2017-06-29T11:54:54.045Z,20.5
2017-06-29T11:55:53.740Z,20.51
2017-06-29T11:56:54.060Z,20.55
2017-06-29T11:57:54.051Z,20.48
2017-06-29T11:58:54.026Z,20.48
2017-06-29T11:59:54.042Z,20.5
2017-06-29T12:00:53.729Z,20.52
2017-06-29T12:01:54.039Z,20.52
2017-06-29T12:02:53.715Z,20.52
2017-06-29T12:03:54.035Z,20.48
2017-06-29T12:04:54.014Z,20.52
2017-06-29T12:05:54.037Z,20.43
2017-06-29T12:06:54.025Z,20.5
2017-06-29T12:07:54.037Z,20.52
2017-06-29T12:08:54.019Z,20.52
2017-06-29T12:09:54.023Z,20.52
2017-06-29T12:10:54.019Z,20.69
2017-06-29T12:11:54.218Z,20.76
2017-06-29T12:12:54.002Z,20.87
2017-06-29T12:13:54.026Z,20.87
2017-06-29T12:14:54.024Z,20.95
2017-06-29T12:15:54.012Z,21.03
2017-06-29T12:16:54.014Z,21.09
2017-06-29T12:17:53.702Z,21.1
2017-06-29T12:18:53.704Z,21.06
2017-06-29T12:19:53.997Z,21.06
2017-06-29T12:20:54.019Z,21.12
2017-06-29T12:21:53.988Z,21.22
2017-06-29T12:22:54.002Z,21.16
2017-06-29T12:23:53.999Z,21.12
2017-06-29T12:24:53.993Z,21.21
2017-06-29T12:25:54.006Z,21.29
2017-06-29T12:26:53.997Z,21.27
2017-06-29T12:27:53.680Z,21.4
2017-06-29T12:28:53.992Z,21.35
2017-06-29T12:29:53.686Z,21.31
2017-06-29T12:30:53.998Z,21.38
2017-06-29T12:31:53.988Z,21.4
2017-06-29T12:32:53.981Z,21.53
2017-06-29T12:33:53.981Z,21.47
2017-06-29T12:34:53.987Z,21.44
2017-06-29T12:35:53.977Z,21.49
2017-06-29T12:36:53.998Z,21.44
2017-06-29T12:37:53.965Z,21.35
2017-06-29T12:38:53.986Z,21.37
2017-06-29T12:39:53.980Z,21.37
2017-06-29T12:40:53.988Z,21.34
2017-06-29T12:41:53.958Z,21.35
2017-06-29T12:42:53.983Z,21.35
2017-06-29T12:43:53.966Z,21.28
2017-06-29T12:44:53.672Z,21.17
2017-06-29T12:45:53.953Z,21.21
2017-06-29T12:46:53.956Z,21.16
2017-06-29T12:47:53.966Z,21.13
2017-06-29T12:48:53.971Z,21.12
2017-06-29T12:49:53.970Z,21.12
2017-06-29T12:50:53.976Z,21.13
2017-06-29T12:51:53.967Z,21.13
2017-06-29T12:52:53.964Z,21.1
2017-06-29T12:53:53.986Z,21.03
2017-06-29T12:54:53.971Z,21.04
2017-06-29T12:55:53.952Z,20.97
2017-06-29T12:56:53.664Z,20.99